.
WxDataArchive / Data Records for 2014-05-07
2014-05-06 May 2014 2014-05-08

Data Records for Wednesday, 07 May 2014

Time	Temp	Chill	HIndex	Humid	Dewpt	 Wind 	HiWind	WindDir	Rain 	Barom
-----	----	-----	------	-----	-----	------	------	-------	-----	-----
00:00	52.5	52.5	52.5	46	32.3	4	14	90	0.00	29.966 
00:05	52.5	52.5	52.5	46	32.3	4	12	90	0.00	29.966 
00:10	52.5	52.5	52.5	46	32.3	4	8	90	0.00	29.966 
00:15	52.3	52.3	52.3	46	32.1	4	11	90	0.00	29.964 
00:20	52.3	52.3	52.3	46	32.1	4	7	90	0.00	29.964 
00:25	52.2	52.2	52.2	47	32.6	4	12	112	0.00	29.964 
00:30	52.2	52.2	52.2	47	32.6	4	11	90	0.00	29.964 
00:35	52.0	52.0	52.0	48	32.9	4	12	90	0.00	29.964 
00:40	51.9	51.9	51.9	49	33.3	4	9	90	0.00	29.964 
00:45	51.9	51.9	51.9	49	33.3	4	10	90	0.00	29.966 
00:50	51.7	51.7	51.7	49	33.2	4	10	90	0.00	29.966 
00:55	51.7	51.7	51.7	50	33.7	3	7	90	0.00	29.966 
01:00	51.7	51.7	51.7	50	33.7	3	6	90	0.00	29.963 
01:05	51.7	51.7	51.7	50	33.7	4	7	90	0.00	29.963 
01:10	51.7	51.7	51.7	50	33.7	3	6	90	0.00	29.963 
01:15	51.6	51.6	51.6	51	34.1	3	6	90	0.00	29.946 
01:20	51.6	51.6	51.6	50	33.6	3	7	90	0.00	29.946 
01:25	51.6	51.6	51.6	50	33.6	4	9	112	0.00	29.946 
01:30	51.6	51.6	51.6	50	33.6	3	9	90	0.00	29.958 
01:35	51.6	51.6	51.6	51	34.1	1	9	90	0.00	29.958 
01:40	51.6	51.6	51.6	51	34.1	3	6	90	0.00	29.958 
01:45	51.6	51.6	51.6	51	34.1	3	9	90	0.00	29.962 
01:50	51.6	51.6	51.6	51	34.1	2	4	68	0.00	29.962 
01:55	51.6	51.6	51.6	51	34.1	2	6	90	0.00	29.962 
02:00	51.7	51.7	51.7	51	34.2	3	6	90	0.00	29.960 
02:05	51.9	51.9	51.9	50	33.9	4	9	90	0.00	29.960 
02:10	52.0	52.0	52.0	50	33.9	4	9	112	0.00	29.960 
02:15	52.2	52.2	52.2	50	34.1	4	10	90	0.00	29.946 
02:20	52.2	52.2	52.2	50	34.1	3	7	90	0.00	29.946 
02:25	52.2	52.2	52.2	50	34.1	3	9	112	0.00	29.946 
02:30	52.2	52.2	52.2	50	34.1	3	9	90	0.00	29.943 
02:35	52.2	52.2	52.2	50	34.1	3	9	90	0.00	29.943 
02:40	52.0	52.0	52.0	51	34.4	4	11	90	0.00	29.943 
02:45	51.9	51.9	51.9	51	34.3	4	9	90	0.00	29.936 
02:50	51.9	51.9	51.9	52	34.8	3	7	90	0.00	29.936 
02:55	51.7	51.7	51.7	52	34.6	3	6	90	0.00	29.936 
03:00	51.7	51.7	51.7	52	34.6	4	10	90	0.00	29.930 
03:05	51.6	51.6	51.6	52	34.6	3	7	112	0.00	29.930 
03:10	51.4	51.4	51.4	53	34.8	3	6	90	0.00	29.930 
03:15	51.4	51.4	51.4	53	34.8	3	7	90	0.00	29.928 
03:20	51.3	51.3	51.3	54	35.2	3	6	90	0.00	29.928 
03:25	51.3	51.3	51.3	54	35.2	3	7	112	0.00	29.928 
03:30	51.1	51.1	51.1	54	35.0	4	9	90	0.00	29.922 
03:35	51.1	51.1	51.1	55	35.5	3	9	90	0.00	29.922 
03:40	51.0	51.0	51.0	56	35.9	3	6	90	0.00	29.922 
03:45	51.0	51.0	51.0	56	35.9	3	7	90	0.00	29.918 
03:50	50.8	50.8	50.8	57	36.1	2	5	68	0.00	29.918 
03:55	50.7	50.7	50.7	58	36.5	3	7	90	0.00	29.918 
04:00	50.7	50.7	50.7	58	36.5	3	6	90	0.00	29.921 
04:05	50.5	50.5	50.5	58	36.3	3	7	90	0.00	29.921 
04:10	50.4	50.4	50.4	59	36.6	3	6	90	0.00	29.921 
04:15	50.4	50.4	50.4	59	36.6	3	6	112	0.00	29.918 
04:20	50.2	50.2	50.2	60	36.9	3	7	90	0.00	29.918 
04:25	50.1	50.1	50.1	60	36.8	3	7	90	0.00	29.918 
04:30	50.1	50.1	50.1	60	36.8	3	6	90	0.00	29.913 
04:35	49.9	49.9	49.9	61	37.0	3	6	90	0.00	29.913 
04:40	49.8	49.8	49.8	61	36.9	3	10	90	0.00	29.913 
04:45	49.8	49.8	49.8	61	36.9	3	7	90	0.00	29.914 
04:50	49.8	49.8	49.8	61	36.9	3	7	90	0.00	29.914 
04:55	49.8	49.8	49.8	61	36.9	3	9	90	0.00	29.914 
05:00	49.8	49.8	49.8	61	36.9	3	10	90	0.00	29.912 
05:05	49.9	49.9	49.9	61	37.0	3	6	90	0.00	29.912 
05:10	49.8	49.8	49.8	61	36.9	2	4	90	0.00	29.912 
05:15	49.9	49.9	49.9	61	37.0	3	7	90	0.00	29.915 
05:20	49.9	49.9	49.9	60	36.6	3	9	90	0.00	29.915 
05:25	49.9	49.9	49.9	60	36.6	2	6	90	0.00	29.915 
05:30	49.9	49.9	49.9	61	37.0	2	6	90	0.00	29.923 
05:35	49.9	49.9	49.9	61	37.0	2	5	90	0.00	29.923 
05:40	49.9	49.9	49.9	61	37.0	3	7	90	0.00	29.923 
05:45	50.1	50.1	50.1	61	37.2	4	7	112	0.00	29.917 
05:50	50.1	50.1	50.1	61	37.2	3	7	90	0.00	29.917 
05:55	50.1	50.1	50.1	62	37.6	4	9	90	0.00	29.917 
06:00	49.9	49.9	49.9	62	37.4	3	9	90	0.00	29.920 
06:05	49.8	49.8	49.8	62	37.3	3	9	112	0.00	29.920 
06:10	49.6	49.6	49.6	63	37.5	3	10	90	0.00	29.920 
06:15	49.5	49.5	49.5	64	37.8	3	7	90	0.00	29.928 
06:20	49.4	49.4	49.4	64	37.7	3	7	90	0.00	29.928 
06:25	49.4	49.4	49.4	65	38.1	3	8	112	0.00	29.928 
06:30	49.4	49.4	49.4	65	38.1	3	7	90	0.00	29.933 
06:35	49.4	49.4	49.4	65	38.1	3	6	90	0.00	29.933 
06:40	49.4	49.4	49.4	65	38.1	3	7	90	0.00	29.933 
06:45	49.4	49.4	49.4	66	38.5	3	7	90	0.00	29.933 
06:50	49.4	48.2	49.4	65	38.1	4	6	112	0.00	29.933 
06:55	49.5	48.3	49.5	66	38.6	4	11	112	0.00	29.933 
07:00	49.5	48.3	49.5	65	38.2	4	10	90	0.00	29.934 
07:05	49.6	49.6	49.6	65	38.3	3	10	90	0.00	29.934 
07:10	49.8	48.6	49.8	65	38.5	4	9	112	0.00	29.934 
07:15	49.9	48.8	49.9	65	38.6	4	8	112	0.00	29.951 
07:20	50.1	50.1	50.1	65	38.8	3	9	112	0.00	29.951 
07:25	50.2	50.2	50.2	64	38.5	3	9	90	0.00	29.951 
07:30	50.4	50.4	50.4	64	38.7	3	9	90	0.00	29.953 
07:35	50.4	50.4	50.4	64	38.7	3	10	90	0.00	29.953 
07:40	50.4	50.4	50.4	64	38.7	3	6	90	0.00	29.953 
07:45	50.5	50.5	50.5	64	38.8	2	5	90	0.00	29.957 
07:50	50.5	50.5	50.5	64	38.8	2	5	90	0.00	29.957 
07:55	50.7	50.7	50.7	65	39.4	3	5	90	0.00	29.957 
08:00	50.7	50.7	50.7	65	39.4	3	5	90	0.00	29.950 
08:05	50.8	50.8	50.8	65	39.5	3	6	90	0.00	29.950 
08:10	51.0	51.0	51.0	64	39.3	3	7	90	0.00	29.950 
08:15	51.1	51.1	51.1	64	39.4	4	8	112	0.00	29.948 
08:20	51.4	51.4	51.4	64	39.6	3	9	90	0.00	29.948 
08:25	51.6	51.6	51.6	63	39.4	3	6	90	0.00	29.948 
08:30	51.6	51.6	51.6	64	39.8	2	4	90	0.00	29.953 
08:35	51.7	51.7	51.7	64	39.9	3	5	90	0.00	29.953 
08:40	52.0	52.0	52.0	63	39.8	3	6	90	0.00	29.953 
08:45	52.3	52.3	52.3	63	40.1	3	10	90	0.00	29.946 
08:50	52.8	52.8	52.8	62	40.1	3	7	90	0.00	29.946 
08:55	53.1	53.1	53.1	62	40.4	2	6	90	0.00	29.946 
09:00	53.2	53.2	53.2	62	40.5	3	7	90	0.00	29.952 
09:05	53.5	53.5	53.5	62	40.8	3	6	90	0.00	29.952 
09:10	53.9	53.9	53.9	61	40.8	2	8	112	0.00	29.952 
09:15	54.5	54.5	54.5	60	40.9	3	7	112	0.00	29.946 
09:20	54.8	54.8	54.8	59	40.7	4	7	112	0.00	29.946 
09:25	55.3	55.3	55.3	59	41.2	3	6	90	0.00	29.946 
09:30	55.6	55.6	55.6	58	41.1	3	6	90	0.00	29.947 
09:35	56.0	56.0	56.0	58	41.4	2	6	90	0.00	29.947 
09:40	56.6	56.6	56.6	58	42.0	2	5	112	0.00	29.947 
09:45	57.3	57.3	57.3	57	42.2	3	6	112	0.00	29.950 
09:50	57.3	57.3	57.3	56	41.7	5	9	90	0.00	29.950 
09:55	57.5	57.5	57.5	58	42.8	2	6	90	0.00	29.950 
10:00	57.8	57.8	57.8	57	42.7	3	7	90	0.00	29.951 
10:05	58.6	58.6	58.6	56	43.0	3	6	90	0.00	29.951 
10:10	59.3	59.3	59.3	54	42.7	3	7	90	0.00	29.951 
10:15	59.9	59.9	59.9	54	43.2	4	6	90	0.00	29.937 
10:20	60.5	60.5	60.5	53	43.3	4	9	90	0.00	29.937 
10:25	61.0	61.0	61.0	52	43.2	4	10	112	0.00	29.937 
10:30	61.2	61.2	61.2	53	43.9	5	10	112	0.00	29.942 
10:35	61.5	61.5	61.5	53	44.2	2	7	90	0.00	29.942 
10:40	61.8	61.8	61.8	53	44.5	4	10	90	0.00	29.942 
10:45	61.8	61.8	61.8	52	44.0	4	9	112	0.00	29.947 
10:50	61.8	61.8	61.8	52	44.0	4	7	90	0.00	29.947 
10:55	61.8	61.8	61.8	53	44.5	5	10	112	0.00	29.947 
11:00	62.1	62.1	62.1	52	44.3	4	7	112	0.00	29.950 
11:05	62.4	62.4	62.4	52	44.5	3	8	112	0.00	29.950 
11:10	62.9	62.9	62.9	51	44.5	5	11	90	0.00	29.950 
11:15	62.7	62.7	62.7	51	44.3	4	11	90	0.00	29.949 
11:20	62.7	62.7	62.7	51	44.3	4	11	112	0.00	29.949 
11:25	63.2	63.2	63.2	51	44.8	4	10	90	0.00	29.949 
11:30	63.4	63.4	63.4	50	44.4	4	9	90	0.00	29.932 
11:35	63.2	63.2	63.2	51	44.8	4	11	112	0.00	29.932 
11:40	63.1	63.1	63.1	52	45.2	5	11	112	0.00	29.932 
11:45	63.5	63.5	63.5	52	45.6	3	6	112	0.00	29.937 
11:50	63.5	63.5	63.5	51	45.0	6	12	90	0.00	29.937 
11:55	63.4	63.4	63.4	52	45.5	4	9	90	0.00	29.937 
12:00	63.7	63.7	63.7	53	46.2	4	10	112	0.00	29.939 
12:05	64.5	64.5	64.5	52	46.5	4	6	112	0.00	29.939 
12:10	65.5	65.5	65.5	53	47.9	3	6	112	0.00	29.939 
12:15	65.8	65.8	65.8	51	47.2	5	11	90	0.00	29.931 
12:20	66.0	66.0	66.0	51	47.3	3	7	112	0.00	29.931 
12:25	66.6	66.6	66.6	51	47.9	2	8	112	0.00	29.931 
12:30	67.4	67.4	67.4	49	47.6	3	9	112	0.00	29.932 
12:35	67.3	67.3	67.3	50	48.0	3	7	90	0.00	29.932 
12:40	67.1	67.1	67.1	51	48.4	4	7	90	0.00	29.932 
12:45	67.3	67.3	67.3	49	47.5	4	10	90	0.00	29.926 
12:50	67.4	67.4	67.4	48	47.0	4	10	90	0.00	29.926 
12:55	67.8	67.8	67.8	49	47.9	4	11	90	0.00	29.926 
13:00	68.8	68.8	68.8	49	48.8	5	10	90	0.00	29.921 
13:05	69.3	69.3	69.3	47	48.2	3	7	90	0.00	29.921 
13:10	69.6	69.6	69.6	47	48.5	4	9	90	0.00	29.921 
13:15	69.9	69.9	69.9	47	48.7	2	7	90	0.00	29.908 
13:20	69.9	69.9	69.9	47	48.7	3	9	112	0.00	29.908 
13:25	69.9	69.9	69.9	47	48.7	3	9	112	0.00	29.908 
13:30	69.9	69.9	69.9	48	49.3	2	9	90	0.00	29.898 
13:35	70.1	70.1	70.1	47	48.9	3	9	90	0.00	29.898 
13:40	70.3	70.3	70.3	48	49.7	3	10	112	0.00	29.898 
13:45	70.6	70.6	70.6	49	50.5	3	11	90	0.00	29.885 
13:50	71.3	71.3	71.3	47	50.0	1	4	112	0.00	29.885 
13:55	72.0	72.0	72.0	46	50.1	2	7	112	0.00	29.885 
14:00	72.1	72.1	72.1	46	50.2	4	9	90	0.00	29.889 
14:05	72.3	72.3	72.3	46	50.3	2	7	90	0.00	29.889 
14:10	72.5	72.5	72.5	46	50.5	1	4	112	0.00	29.889 
14:15	72.8	72.8	72.8	46	50.8	2	6	112	0.00	29.887 
14:20	73.3	73.3	73.3	46	51.3	2	7	112	0.00	29.887 
14:25	74.0	74.0	74.0	45	51.3	1	7	90	0.00	29.887 
14:30	74.4	74.4	74.4	44	51.0	3	8	90	0.00	29.878 
14:35	74.2	74.2	74.2	43	50.2	4	9	90	0.00	29.878 
14:40	74.0	74.0	74.0	46	51.9	2	7	112	0.00	29.878 
14:45	74.0	74.0	74.0	45	51.3	2	5	90	0.00	29.886 
14:50	74.0	74.0	74.0	45	51.3	1	5	90	0.00	29.886 
14:55	74.2	74.2	74.2	44	50.9	3	6	112	0.00	29.886 
15:00	74.7	74.7	74.7	46	52.5	1	5	90	0.00	29.874 
15:05	75.3	75.3	77.7	45	52.5	1	5	90	0.00	29.874 
15:10	76.0	76.0	78.0	44	52.5	2	7	68	0.00	29.874 
15:15	76.5	76.5	78.2	44	52.9	2	6	112	0.00	29.873 
15:20	76.8	76.8	78.2	42	51.9	1	5	112	0.00	29.873 
15:25	77.0	77.0	78.4	44	53.4	1	7	112	0.00	29.873 
15:30	77.2	77.2	78.5	43	52.9	1	5	112	0.00	29.868 
15:35	77.2	77.2	78.5	43	52.9	1	5	90	0.00	29.868 
15:40	77.6	77.6	78.7	43	53.3	1	5	90	0.00	29.868 
15:45	77.7	77.7	78.7	42	52.8	2	10	90	0.00	29.854 
15:50	78.1	78.1	78.9	43	53.8	2	7	90	0.00	29.854 
15:55	78.3	78.3	79.1	43	53.9	3	7	90	0.00	29.854 
16:00	78.5	78.5	79.2	43	54.1	3	6	90	0.00	29.848 
16:05	78.6	78.6	79.2	42	53.6	2	7	90	0.00	29.848 
16:10	78.8	78.8	79.3	42	53.7	1	5	112	0.00	29.848 
16:15	78.8	78.8	79.3	42	53.7	2	5	112	0.00	29.844 
16:20	78.8	78.8	79.3	42	53.7	1	5	112	0.00	29.844 
16:25	79.0	79.0	79.4	42	53.9	1	3	112	0.00	29.844 
16:30	79.2	79.2	79.7	44	55.4	1	4	0	0.00	29.851 
16:35	79.4	79.4	79.7	42	54.3	1	6	90	0.00	29.851 
16:40	79.4	79.4	79.8	43	54.9	3	7	90	0.00	29.851 
16:45	79.4	79.4	79.7	42	54.3	1	5	90	0.00	29.843 
16:50	79.4	79.4	79.8	44	55.6	1	4	112	0.00	29.843 
16:55	79.4	79.4	79.8	43	54.9	1	4	112	0.00	29.843 
17:00	79.0	79.0	79.6	44	55.2	1	5	112	0.00	29.845 
17:05	78.6	78.6	79.4	45	55.5	1	4	90	0.00	29.845 
17:10	78.5	78.5	79.2	44	54.7	1	3	90	0.00	29.845 
17:15	78.3	78.3	79.2	46	55.8	2	9	90	0.00	29.839 
17:20	77.9	77.9	78.9	44	54.2	1	6	90	0.00	29.839 
17:25	77.7	77.7	78.9	46	55.2	1	4	112	0.00	29.839 
17:30	77.4	77.4	78.7	46	55.0	2	5	112	0.00	29.846 
17:35	77.2	77.2	78.6	46	54.8	1	6	45	0.00	29.846 
17:40	77.0	77.0	78.5	46	54.6	2	5	112	0.00	29.846 
17:45	76.8	76.8	78.4	47	55.0	1	5	90	0.00	29.843 
17:50	76.7	76.7	78.4	48	55.5	1	3	90	0.00	29.843 
17:55	76.7	76.7	78.4	48	55.5	0	3	68	0.00	29.843 
18:00	76.7	76.7	78.4	48	55.5	1	3	68	0.00	29.845 
18:05	76.8	76.8	78.4	48	55.6	1	4	68	0.00	29.845 
18:10	76.8	76.8	78.4	48	55.6	1	5	112	0.00	29.845 
18:15	76.8	76.8	78.4	48	55.6	0	2	112	0.00	29.844 
18:20	76.8	76.8	78.4	47	55.0	1	5	90	0.00	29.844 
18:25	76.8	76.8	78.4	48	55.6	2	9	90	0.00	29.844 
18:30	76.8	76.8	78.4	47	55.0	2	6	112	0.00	29.845 
18:35	77.0	77.0	78.5	47	55.2	1	5	90	0.00	29.845 
18:40	76.8	76.8	78.4	46	54.4	2	6	112	0.00	29.845 
18:45	76.7	76.7	78.4	47	54.9	2	6	112	0.00	29.844 
18:50	76.7	76.7	78.4	47	54.9	2	7	112	0.00	29.844 
18:55	76.5	76.5	78.3	47	54.7	1	4	68	0.00	29.844 
19:00	76.3	76.3	78.2	47	54.6	2	6	90	0.00	29.843 
19:05	76.1	76.1	78.1	48	55.0	2	9	112	0.00	29.843 
19:10	75.8	75.8	78.0	48	54.7	2	7	112	0.00	29.843 
19:15	75.4	75.4	77.8	48	54.3	2	5	112	0.00	29.842 
19:20	75.1	75.1	77.7	50	55.2	2	7	112	0.00	29.842 
19:25	74.7	74.7	74.7	50	54.8	0	5	90	0.00	29.842 
19:30	74.4	74.4	74.4	50	54.5	1	3	90	0.00	29.851 
19:35	74.0	74.0	74.0	51	54.7	1	4	90	0.00	29.851 
19:40	73.7	73.7	73.7	52	55.0	1	3	90	0.00	29.851 
19:45	73.3	73.3	73.3	52	54.6	0	3	90	0.00	29.858 
19:50	73.0	73.0	73.0	53	54.8	0	3	90	0.00	29.858 
19:55	72.7	72.7	72.7	54	55.1	0	4	90	0.00	29.858 
20:00	72.3	72.3	72.3	54	54.7	1	4	90	0.00	29.861 
20:05	72.1	72.1	72.1	55	55.0	1	6	90	0.00	29.861 
20:10	71.8	71.8	71.8	56	55.2	1	3	90	0.00	29.861 
20:15	71.6	71.6	71.6	56	55.1	1	3	90	0.00	29.870 
20:20	71.5	71.5	71.5	57	55.5	1	4	90	0.00	29.870 
20:25	71.1	71.1	71.1	57	55.1	1	6	90	0.00	29.870 
20:30	70.8	70.8	70.8	58	55.3	2	9	68	0.00	29.875 
20:35	70.3	70.3	70.3	58	54.8	3	9	112	0.00	29.875 
20:40	69.8	69.8	69.8	59	54.8	2	7	112	0.00	29.875 
20:45	69.3	69.3	69.3	60	54.8	3	5	90	0.00	29.876 
20:50	68.8	68.8	68.8	61	54.8	3	5	90	0.00	29.876 
20:55	68.4	68.4	68.4	61	54.4	2	6	90	0.00	29.876 
21:00	67.9	67.9	67.9	62	54.4	2	10	112	0.00	29.874 
21:05	67.4	67.4	67.4	62	53.9	2	5	112	0.00	29.874 
21:10	67.1	67.1	67.1	63	54.1	1	6	90	0.00	29.874 
21:15	66.8	66.8	66.8	64	54.2	2	7	112	0.00	29.874 
21:20	66.4	66.4	66.4	64	53.8	1	4	112	0.00	29.874 
21:25	66.1	66.1	66.1	65	54.0	1	3	112	0.00	29.874 
21:30	66.0	66.0	66.0	65	53.9	1	4	112	0.00	29.875 
21:35	65.6	65.6	65.6	66	53.9	1	5	112	0.00	29.875 
21:40	65.5	65.5	65.5	66	53.8	1	3	112	0.00	29.875 
21:45	65.3	65.3	65.3	66	53.6	0	4	112	0.00	29.891 
21:50	65.2	65.2	65.2	66	53.5	1	5	90	0.00	29.891 
21:55	64.8	64.8	64.8	67	53.6	3	7	90	0.00	29.891 
22:00	64.7	64.7	64.7	68	53.9	3	5	90	0.00	29.890 
22:05	64.3	64.3	64.3	68	53.5	3	6	68	0.00	29.890 
22:10	64.0	64.0	64.0	68	53.2	4	9	90	0.00	29.890 
22:15	63.9	63.9	63.9	69	53.5	3	6	90	0.00	29.889 
22:20	63.4	63.4	63.4	69	53.0	2	7	90	0.00	29.889 
22:25	62.9	62.9	62.9	69	52.6	1	4	112	0.00	29.889 
22:30	62.3	62.3	62.3	69	52.0	1	6	90	0.00	29.901 
22:35	61.6	61.6	61.6	69	51.3	2	6	112	0.00	29.901 
22:40	61.2	61.2	61.2	70	51.3	2	5	90	0.00	29.901 
22:45	60.7	60.7	60.7	70	50.9	2	6	90	0.00	29.899 
22:50	60.2	60.2	60.2	70	50.4	2	5	112	0.00	29.899 
22:55	59.9	59.9	59.9	71	50.5	2	6	112	0.00	29.899 
23:00	59.5	59.5	59.5	72	50.5	2	6	112	0.00	29.892 
23:05	59.0	59.0	59.0	72	50.0	1	4	112	0.00	29.892 
23:10	58.6	58.6	58.6	72	49.6	1	4	112	0.00	29.892 
23:15	58.1	58.1	58.1	72	49.1	1	4	112	0.00	29.892 
23:20	57.8	57.8	57.8	73	49.2	1	4	112	0.00	29.892 
23:25	57.5	57.5	57.5	72	48.5	0	4	112	0.00	29.892 
23:30	57.2	57.2	57.2	72	48.3	0	2	112	0.00	29.908 
23:35	57.0	57.0	57.0	72	48.1	1	3	112	0.00	29.908 
23:40	56.7	56.7	56.7	73	48.1	0	3	112	0.00	29.908 
23:45	56.5	56.5	56.5	73	47.9	0	3	112	0.00	29.910 
23:50	56.2	56.2	56.2	73	47.7	1	4	112	0.00	29.910 
23:55	55.9	55.9	55.9	73	47.4	1	5	112	0.00	29.910 

CoCoRaHS
IN-AL-39
A2 Web Hosting
Creative Commons License
GoDaddy
search engine by freefind advanced

loaded 2018-12-19 10:18:59 • last modified 2010-11-18 10:43:29
Privacy PolicyDisclaimer
• wx.awcolley.com is powered by PmWiki v.2002016 •
• all content (unless otherwise noted) © 2018 A W Colley